Time;durP1;ratioP1;P1;durP2;ratioP2;P2;SDS_P1;SDS_P2;PMS_P1;PMS_P2;Temp;Humidity;BMP_temperature;BMP_pressure;BME280_temperature;BME280_humidity;BME280_pressure;Samples;Min_cycle;Max_cycle;Signal;HPM_P1;HPM_P2
2023/05/24 00:01:24;;;;;;;15.68;4.50;;;9.40;99.90;;;;;;5030730;28;20048;-80
2023/05/24 00:03:51;;;;;;;19.65;4.65;;;9.40;99.90;;;;;;5023072;28;20033;-80
2023/05/24 00:06:17;;;;;;;17.75;4.35;;;9.40;99.90;;;;;;5012318;28;20539;-80
2023/05/24 00:08:43;;;;;;;18.80;4.57;;;9.40;99.90;;;;;;5012520;28;20120;-81
2023/05/24 00:11:10;;;;;;;17.17;3.60;;;9.40;99.90;;;;;;5012153;28;20141;-80
2023/05/24 00:13:36;;;;;;;19.55;5.03;;;9.40;99.90;;;;;;5012647;28;20045;-80
2023/05/24 00:16:02;;;;;;;17.48;4.50;;;9.50;99.90;;;;;;5028590;28;20065;-81
2023/05/24 00:18:30;;;;;;;17.73;5.03;;;9.50;99.90;;;;;;5016992;28;20042;-80
2023/05/24 00:20:59;;;;;;;15.20;4.35;;;9.50;99.90;;;;;;5032206;28;20421;-80
2023/05/24 00:23:25;;;;;;;15.48;4.25;;;9.60;99.90;;;;;;5017506;28;20509;-81
2023/05/24 00:25:51;;;;;;;19.13;4.72;;;9.60;99.90;;;;;;5017114;28;20041;-81
2023/05/24 00:28:16;;;;;;;16.92;4.18;;;9.60;99.90;;;;;;4994144;28;20056;-81
2023/05/24 00:30:42;;;;;;;17.90;4.57;;;9.60;99.90;;;;;;5017497;28;20045;-82
2023/05/24 00:33:08;;;;;;;19.92;4.93;;;9.60;99.90;;;;;;5014145;28;20390;-82
2023/05/24 00:35:33;;;;;;;15.60;4.57;;;9.50;99.90;;;;;;4999455;28;20045;-81
2023/05/24 00:37:59;;;;;;;16.65;4.68;;;9.50;99.90;;;;;;5028041;28;20068;-81
2023/05/24 00:40:25;;;;;;;18.65;5.32;;;9.40;99.90;;;;;;5008985;28;20045;-81
2023/05/24 00:42:50;;;;;;;18.02;4.63;;;9.40;99.90;;;;;;5011321;28;20095;-80
2023/05/24 00:45:16;;;;;;;18.13;4.28;;;9.30;99.90;;;;;;5015699;28;20056;-80
2023/05/24 00:47:42;;;;;;;15.70;4.50;;;9.20;99.90;;;;;;5008031;28;20049;-80
2023/05/24 00:50:11;;;;;;;15.90;4.30;;;9.20;99.90;;;;;;5017413;28;20057;-80
2023/05/24 00:52:37;;;;;;;15.55;4.40;;;9.00;99.90;;;;;;5014157;28;20041;-80
2023/05/24 00:55:03;;;;;;;17.20;4.00;;;9.00;99.90;;;;;;5012437;28;20053;-80
2023/05/24 00:57:29;;;;;;;14.82;4.40;;;9.00;99.90;;;;;;5012860;28;20068;-82
2023/05/24 00:59:55;;;;;;;18.50;4.53;;;8.90;99.90;;;;;;5011771;28;20073;-81
2023/05/24 01:02:21;;;;;;;19.17;4.30;;;8.80;99.90;;;;;;5015724;28;20060;-80
2023/05/24 01:04:47;;;;;;;15.80;4.55;;;8.80;99.90;;;;;;5016638;28;20037;-81
2023/05/24 01:07:49;;;;;;;19.42;6.22;;;8.80;99.90;;;;;;5012475;28;20087;-81
2023/05/24 01:10:28;;;;;;;18.42;4.35;;;8.70;99.90;;;;;;5024314;28;20046;-82
2023/05/24 01:13:12;;;;;;;19.45;4.82;;;8.70;99.90;;;;;;5016117;28;20083;-80
2023/05/24 01:15:46;;;;;;;13.65;3.55;;;8.70;99.90;;;;;;5029180;28;20081;-80
2023/05/24 01:18:20;;;;;;;15.15;4.13;;;8.70;99.90;;;;;;5022268;28;20049;-81
2023/05/24 01:20:57;;;;;;;20.50;4.20;;;8.70;99.90;;;;;;5011624;28;20420;-80
2023/05/24 01:23:48;;;;;;;10.65;3.63;;;8.60;99.90;;;;;;5013258;28;20121;-80
2023/05/24 01:26:30;;;;;;;14.20;4.97;;;8.60;99.90;;;;;;5013201;28;20493;-81
2023/05/24 01:28:56;;;;;;;21.27;4.65;;;8.60;99.90;;;;;;5024911;28;20046;-80
2023/05/24 01:31:22;;;;;;;18.15;4.03;;;8.50;99.90;;;;;;5016524;28;20057;-80
2023/05/24 01:33:47;;;;;;;15.45;4.05;;;8.50;99.90;;;;;;5015546;28;20139;-81
2023/05/24 01:36:13;;;;;;;16.08;3.92;;;8.40;99.90;;;;;;5014995;28;20046;-80
2023/05/24 01:38:40;;;;;;;13.48;3.80;;;8.40;99.90;;;;;;5015284;28;20467;-80
2023/05/24 01:41:14;;;;;;;16.45;3.95;;;8.50;99.90;;;;;;5012240;28;20110;-81
2023/05/24 01:43:46;;;;;;;14.50;3.90;;;8.40;99.90;;;;;;5022464;28;20046;-81
2023/05/24 01:46:38;;;;;;;15.40;4.20;;;8.50;99.90;;;;;;5031266;28;20038;-80
2023/05/24 01:49:24;;;;;;;12.90;4.22;;;8.50;99.90;;;;;;5004609;28;20137;-80
2023/05/24 01:51:58;;;;;;;15.07;4.78;;;8.50;99.90;;;;;;5003981;28;20049;-79
2023/05/24 01:54:27;;;;;;;15.75;4.45;;;8.60;99.90;;;;;;5028500;28;20052;-80
2023/05/24 01:56:54;;;;;;;18.38;4.10;;;8.60;99.90;;;;;;5013093;28;20041;-81
2023/05/24 01:59:24;;;;;;;16.83;4.85;;;8.60;99.90;;;;;;5013008;28;20088;-80
2023/05/24 02:01:50;;;;;;;15.20;3.40;;;8.70;99.90;;;;;;5033910;28;20475;-80
2023/05/24 02:04:17;;;;;;;17.27;4.70;;;8.70;99.90;;;;;;5033653;28;20112;-80
2023/05/24 02:06:42;;;;;;;11.77;4.10;;;8.70;99.90;;;;;;5033674;28;20084;-80
2023/05/24 02:09:08;;;;;;;15.15;4.22;;;8.80;99.90;;;;;;5033967;28;20458;-80
2023/05/24 02:11:34;;;;;;;13.98;3.60;;;8.70;99.90;;;;;;5033234;28;20042;-80
2023/05/24 02:13:59;;;;;;;27.05;4.88;;;8.70;99.90;;;;;;5015684;28;20049;-80
2023/05/24 02:16:25;;;;;;;16.83;3.97;;;8.70;99.90;;;;;;4999747;28;20048;-79
2023/05/24 02:18:51;;;;;;;16.20;4.57;;;8.60;99.90;;;;;;5015728;28;20121;-80
2023/05/24 02:21:17;;;;;;;16.65;4.07;;;8.60;99.90;;;;;;5033446;28;20050;-80
2023/05/24 02:23:43;;;;;;;16.13;4.13;;;8.60;99.90;;;;;;5015687;28;20118;-80
2023/05/24 02:26:10;;;;;;;14.85;4.63;;;8.60;99.90;;;;;;5033386;28;20462;-80
2023/05/24 02:28:36;;;;;;;14.98;3.95;;;8.60;99.90;;;;;;5011248;28;20049;-81
2023/05/24 02:31:02;;;;;;;16.13;4.25;;;8.70;99.90;;;;;;5024693;28;20045;-80
2023/05/24 02:33:28;;;;;;;17.65;4.20;;;8.80;99.90;;;;;;4994471;28;20037;-80
2023/05/24 02:35:55;;;;;;;17.65;4.70;;;8.70;99.90;;;;;;5014747;28;20398;-80
2023/05/24 02:38:21;;;;;;;18.45;4.13;;;8.70;99.90;;;;;;5011968;28;20057;-80
2023/05/24 02:40:46;;;;;;;16.85;4.18;;;8.70;99.90;;;;;;5010954;28;20045;-80
2023/05/24 02:43:12;;;;;;;14.93;3.72;;;8.70;99.90;;;;;;5030372;28;20501;-80
2023/05/24 02:45:37;;;;;;;16.67;4.93;;;8.70;99.90;;;;;;5015487;28;20049;-81
2023/05/24 02:48:03;;;;;;;16.25;4.30;;;8.70;99.90;;;;;;5005789;28;20055;-80
2023/05/24 02:50:29;;;;;;;12.18;3.65;;;8.70;99.90;;;;;;5012701;28;20060;-80
2023/05/24 02:52:54;;;;;;;13.95;4.13;;;8.70;99.90;;;;;;4998566;28;20119;-80
2023/05/24 02:55:20;;;;;;;15.32;4.22;;;8.70;99.90;;;;;;4992833;28;20041;-79
2023/05/24 02:57:46;;;;;;;20.48;4.30;;;8.70;99.90;;;;;;5010788;28;20493;-79
2023/05/24 03:00:13;;;;;;;15.73;4.03;;;8.60;99.90;;;;;;5007842;28;20033;-80
2023/05/24 03:02:39;;;;;;;15.75;3.75;;;8.60;99.90;;;;;;5011385;28;20034;-79
2023/05/24 03:05:06;;;;;;;18.50;4.40;;;8.50;99.90;;;;;;5027755;28;20046;-79
2023/05/24 03:07:31;;;;;;;17.83;4.55;;;8.60;99.90;;;;;;5023910;28;20048;-79
2023/05/24 03:09:57;;;;;;;18.77;4.03;;;8.50;99.90;;;;;;4993607;28;20401;-80
2023/05/24 03:12:23;;;;;;;17.67;3.90;;;8.50;99.90;;;;;;5024427;28;20397;-81
2023/05/24 03:14:48;;;;;;;20.50;4.20;;;8.50;99.90;;;;;;5010574;28;20511;-79
2023/05/24 03:17:14;;;;;;;19.63;5.07;;;8.50;99.90;;;;;;5022043;28;20037;-80
2023/05/24 03:19:39;;;;;;;23.02;5.15;;;8.50;99.90;;;;;;5019453;28;20133;-79
2023/05/24 03:22:05;;;;;;;16.73;3.97;;;8.40;99.90;;;;;;5027683;28;20116;-80
2023/05/24 03:24:32;;;;;;;17.63;4.22;;;8.40;99.90;;;;;;5007644;28;20050;-80
2023/05/24 03:26:57;;;;;;;17.77;3.97;;;8.40;99.90;;;;;;5000204;28;20059;-80
2023/05/24 03:29:23;;;;;;;18.85;4.53;;;8.50;99.90;;;;;;5011625;28;20037;-80
2023/05/24 03:31:49;;;;;;;13.70;3.88;;;8.40;99.90;;;;;;5020897;28;20041;-79
2023/05/24 03:34:14;;;;;;;14.68;3.85;;;8.50;99.90;;;;;;5013433;28;20043;-79
2023/05/24 03:36:40;;;;;;;12.52;3.70;;;8.50;99.90;;;;;;4996736;28;20034;-79
2023/05/24 03:39:06;;;;;;;16.95;3.60;;;8.50;99.90;;;;;;5012107;28;20037;-80
2023/05/24 03:41:32;;;;;;;11.05;3.67;;;8.60;99.90;;;;;;5010396;28;20037;-79
2023/05/24 03:43:58;;;;;;;16.23;3.50;;;8.60;99.90;;;;;;5019865;28;20034;-78
2023/05/24 03:46:24;;;;;;;19.30;4.18;;;8.60;99.90;;;;;;5028482;28;20041;-79
2023/05/24 03:48:49;;;;;;;12.80;3.55;;;8.70;99.90;;;;;;5007942;28;20439;-79
2023/05/24 03:51:15;;;;;;;15.70;3.63;;;8.70;99.90;;;;;;5005474;28;20428;-79
2023/05/24 03:53:41;;;;;;;16.20;4.32;;;8.70;99.90;;;;;;5008719;28;20060;-79
2023/05/24 03:56:06;;;;;;;19.85;4.15;;;8.80;99.90;;;;;;5007993;28;20048;-79
2023/05/24 03:58:32;;;;;;;14.77;3.72;;;8.80;99.90;;;;;;5002032;28;20040;-79
2023/05/24 04:00:58;;;;;;;17.67;3.88;;;8.80;99.90;;;;;;5004876;28;20042;-79
2023/05/24 04:03:24;;;;;;;18.50;4.07;;;8.80;99.90;;;;;;5018674;28;20050;-80
2023/05/24 04:05:50;;;;;;;18.10;4.13;;;8.90;99.90;;;;;;5010896;28;20129;-79
2023/05/24 04:08:16;;;;;;;21.27;3.88;;;8.90;99.90;;;;;;5027006;28;20517;-79
2023/05/24 04:10:42;;;;;;;15.90;4.43;;;8.90;99.90;;;;;;5009115;28;20076;-80
2023/05/24 04:13:08;;;;;;;20.88;4.93;;;8.90;99.90;;;;;;5021948;28;20054;-79
2023/05/24 04:15:33;;;;;;;15.68;3.78;;;9.00;99.90;;;;;;5009867;28;20047;-79
2023/05/24 04:17:59;;;;;;;15.90;4.30;;;9.00;99.90;;;;;;5005251;28;20042;-79
2023/05/24 04:20:26;;;;;;;19.02;4.53;;;9.00;99.90;;;;;;5010761;28;20038;-79
2023/05/24 04:22:52;;;;;;;13.50;3.83;;;9.10;99.90;;;;;;5018498;28;20042;-79
2023/05/24 04:25:18;;;;;;;16.10;3.45;;;9.10;99.90;;;;;;4996131;28;20045;-79
2023/05/24 04:27:43;;;;;;;15.05;3.85;;;9.10;99.90;;;;;;5009928;28;20072;-79
2023/05/24 04:30:10;;;;;;;14.05;4.07;;;9.20;99.90;;;;;;5008809;28;20401;-79
2023/05/24 04:32:36;;;;;;;12.40;4.20;;;9.10;99.90;;;;;;4986373;28;20587;-79
2023/05/24 04:35:03;;;;;;;16.58;3.97;;;9.10;99.90;;;;;;5018761;28;20077;-79
2023/05/24 04:37:30;;;;;;;13.20;4.35;;;9.10;99.90;;;;;;5028661;28;20037;-79
2023/05/24 04:39:56;;;;;;;17.17;4.38;;;9.10;99.90;;;;;;5011998;28;20082;-80
2023/05/24 04:42:22;;;;;;;16.83;4.10;;;9.10;99.90;;;;;;5029080;28;20577;-81
2023/05/24 04:44:47;;;;;;;17.33;4.43;;;9.10;99.90;;;;;;5001249;28;20038;-79
2023/05/24 04:47:13;;;;;;;11.65;3.75;;;9.20;99.90;;;;;;5025693;28;20452;-80
2023/05/24 04:49:39;;;;;;;12.65;3.75;;;9.20;99.90;;;;;;5019915;28;20129;-80
2023/05/24 04:52:05;;;;;;;15.13;3.47;;;9.10;99.90;;;;;;5010237;28;20042;-80
2023/05/24 04:54:30;;;;;;;13.20;3.70;;;9.10;99.90;;;;;;5006859;28;20073;-80
2023/05/24 04:56:56;;;;;;;13.77;4.00;;;9.10;99.90;;;;;;5002353;28;20085;-79
2023/05/24 04:59:22;;;;;;;10.52;4.18;;;9.10;99.90;;;;;;5013667;28;20091;-79
2023/05/24 05:01:47;;;;;;;17.88;4.28;;;9.20;99.90;;;;;;5007562;28;20189;-80
2023/05/24 05:04:13;;;;;;;15.27;3.72;;;9.10;99.90;;;;;;5015875;28;20762;-79
2023/05/24 05:06:39;;;;;;;16.67;3.75;;;9.20;99.90;;;;;;5010752;28;20037;-79
2023/05/24 05:09:09;;;;;;;16.00;4.45;;;9.20;99.90;;;;;;5032213;28;20045;-80
2023/05/24 05:11:35;;;;;;;17.58;3.90;;;9.20;99.90;;;;;;5014554;28;20052;-79
2023/05/24 05:14:01;;;;;;;14.60;4.35;;;9.30;99.90;;;;;;5015428;28;20045;-80
2023/05/24 05:16:26;;;;;;;18.35;4.10;;;9.40;99.90;;;;;;5007112;28;20037;-79
2023/05/24 05:18:52;;;;;;;18.98;4.50;;;9.50;99.90;;;;;;5013824;28;20111;-79
2023/05/24 05:21:17;;;;;;;20.05;4.28;;;9.60;99.90;;;;;;5015018;28;20036;-79
2023/05/24 05:23:44;;;;;;;14.32;4.43;;;9.70;99.90;;;;;;5000237;28;20489;-79
2023/05/24 05:26:10;;;;;;;12.38;3.60;;;9.80;99.90;;;;;;5033674;28;20042;-80
2023/05/24 05:28:36;;;;;;;21.48;4.78;;;9.90;99.90;;;;;;5033655;28;20049;-79
2023/05/24 05:31:02;;;;;;;16.08;3.72;;;10.00;99.90;;;;;;5015379;28;20113;-79
2023/05/24 05:33:27;;;;;;;19.50;4.75;;;10.10;99.90;;;;;;5015039;28;20041;-79
2023/05/24 05:35:53;;;;;;;18.77;4.32;;;10.20;99.90;;;;;;5032240;28;20033;-79
2023/05/24 05:38:18;;;;;;;19.42;4.30;;;10.30;99.90;;;;;;5010891;28;20410;-79
2023/05/24 05:40:44;;;;;;;21.45;4.60;;;10.40;99.90;;;;;;5012541;28;20155;-79
2023/05/24 05:43:09;;;;;;;18.13;4.68;;;10.50;99.90;;;;;;5012958;28;20041;-79
2023/05/24 05:45:35;;;;;;;17.48;4.57;;;10.60;99.90;;;;;;4996059;28;20104;-79
2023/05/24 05:48:01;;;;;;;19.77;4.88;;;10.70;99.90;;;;;;5012946;28;20417;-79
2023/05/24 05:50:26;;;;;;;19.70;4.13;;;10.70;99.90;;;;;;5010957;28;20081;-79
2023/05/24 05:52:52;;;;;;;14.65;4.65;;;10.70;99.90;;;;;;5014500;28;20041;-78
2023/05/24 05:55:17;;;;;;;16.55;3.95;;;10.70;99.90;;;;;;5013569;28;20037;-79
2023/05/24 05:57:43;;;;;;;21.05;4.30;;;10.80;99.90;;;;;;5014486;28;20055;-77
2023/05/24 06:00:09;;;;;;;15.60;4.03;;;10.90;99.90;;;;;;5015246;28;20122;-79
2023/05/24 06:02:35;;;;;;;22.55;5.15;;;10.90;99.90;;;;;;5015715;28;20184;-78
2023/05/24 06:05:00;;;;;;;21.20;5.07;;;11.00;99.90;;;;;;5015379;28;20518;-77
2023/05/24 06:07:26;;;;;;;19.73;4.63;;;11.10;99.90;;;;;;5015113;28;20559;-78
2023/05/24 06:09:51;;;;;;;18.90;4.78;;;11.10;99.90;;;;;;5014884;28;20096;-78
2023/05/24 06:12:17;;;;;;;15.77;4.28;;;11.20;99.90;;;;;;5015223;28;20385;-76
2023/05/24 06:14:43;;;;;;;19.40;4.30;;;11.30;99.90;;;;;;5014924;28;20029;-76
2023/05/24 06:17:08;;;;;;;24.55;5.57;;;11.30;99.90;;;;;;4998475;28;20497;-77
2023/05/24 06:19:34;;;;;;;15.35;4.05;;;11.40;99.90;;;;;;5014443;28;20152;-76
2023/05/24 06:22:00;;;;;;;16.38;4.07;;;11.50;99.90;;;;;;5015153;28;20046;-77
2023/05/24 06:24:27;;;;;;;16.13;3.60;;;11.50;99.90;;;;;;5014752;28;20065;-76
2023/05/24 06:26:53;;;;;;;16.65;4.50;;;11.50;99.90;;;;;;4998524;28;20127;-78
2023/05/24 06:29:20;;;;;;;9.90;3.30;;;11.60;99.90;;;;;;5032466;28;20084;-77
2023/05/24 06:31:46;;;;;;;11.52;3.55;;;11.60;99.90;;;;;;5014887;28;20121;-78
2023/05/24 06:34:19;;;;;;;11.35;3.22;;;11.70;99.90;;;;;;5032844;28;20065;-77
2023/05/24 06:36:47;;;;;;;18.55;4.30;;;11.80;99.90;;;;;;5014847;28;20108;-79
2023/05/24 06:39:14;;;;;;;12.38;3.63;;;11.80;99.90;;;;;;4998269;28;20080;-77
2023/05/24 06:41:42;;;;;;;13.43;3.67;;;12.00;99.90;;;;;;5006879;28;20091;-79
2023/05/24 06:44:08;;;;;;;16.65;3.50;;;12.10;99.90;;;;;;4998433;28;20052;-77
2023/05/24 06:46:33;;;;;;;11.57;3.08;;;12.10;99.90;;;;;;5032586;28;20404;-76
2023/05/24 06:48:59;;;;;;;15.57;3.47;;;12.30;99.90;;;;;;5014797;28;20116;-76
2023/05/24 06:51:25;;;;;;;12.13;3.08;;;12.40;99.90;;;;;;5014501;28;20049;-76
2023/05/24 06:53:51;;;;;;;13.73;3.80;;;12.50;99.90;;;;;;5032560;28;20037;-76
2023/05/24 06:56:16;;;;;;;12.85;3.20;;;12.50;99.90;;;;;;5014270;28;20068;-76
2023/05/24 06:58:42;;;;;;;14.57;3.03;;;12.50;99.90;;;;;;5014475;28;20393;-76
2023/05/24 07:01:08;;;;;;;14.07;3.10;;;12.40;99.90;;;;;;5014352;28;20045;-79
2023/05/24 07:03:34;;;;;;;12.88;3.33;;;12.30;99.90;;;;;;5014530;28;20052;-79
2023/05/24 07:06:00;;;;;;;12.13;2.83;;;12.20;99.90;;;;;;5014821;28;20079;-78
2023/05/24 07:08:26;;;;;;;14.32;3.17;;;12.20;99.90;;;;;;5013979;28;20146;-78
2023/05/24 07:10:55;;;;;;;14.55;3.28;;;12.10;99.90;;;;;;5027015;28;20089;-79
2023/05/24 07:13:21;;;;;;;15.35;3.28;;;12.10;99.90;;;;;;5029374;28;20069;-78
2023/05/24 07:15:48;;;;;;;14.75;3.03;;;12.20;99.90;;;;;;5014467;28;20493;-79
2023/05/24 07:18:13;;;;;;;12.80;3.13;;;12.20;99.90;;;;;;5011367;28;20520;-79
2023/05/24 07:20:39;;;;;;;17.40;3.85;;;12.20;99.90;;;;;;5013936;28;20041;-79
2023/05/24 07:23:05;;;;;;;16.38;3.80;;;12.30;99.90;;;;;;5031397;28;20049;-78
2023/05/24 07:25:32;;;;;;;17.08;3.42;;;12.40;99.90;;;;;;4997364;28;20049;-78
2023/05/24 07:27:58;;;;;;;13.68;3.47;;;12.40;99.90;;;;;;5031571;28;20107;-77
2023/05/24 07:30:24;;;;;;;13.57;3.10;;;12.30;99.90;;;;;;5013917;28;20037;-79
2023/05/24 07:32:50;;;;;;;16.05;3.75;;;12.30;99.90;;;;;;4997497;28;20091;-79
2023/05/24 07:35:16;;;;;;;20.00;3.85;;;12.50;99.90;;;;;;5031593;28;20045;-80
2023/05/24 07:37:41;;;;;;;12.85;3.17;;;12.60;99.90;;;;;;4997951;28;20049;-79
2023/05/24 07:40:10;;;;;;;18.45;3.45;;;12.50;99.90;;;;;;5014039;28;20642;-78
2023/05/24 07:42:39;;;;;;;11.35;3.47;;;12.50;99.90;;;;;;5013644;28;20037;-80
2023/05/24 07:45:07;;;;;;;14.68;2.97;;;12.60;99.90;;;;;;4994176;28;20053;-78
2023/05/24 07:47:33;;;;;;;17.40;3.33;;;12.90;99.90;;;;;;5013672;28;20045;-79
2023/05/24 07:49:59;;;;;;;13.60;3.03;;;12.90;99.90;;;;;;5013719;28;20050;-79
2023/05/24 07:52:25;;;;;;;16.50;3.47;;;12.80;99.90;;;;;;5031491;28;20034;-79
2023/05/24 07:54:51;;;;;;;17.95;3.83;;;12.70;99.90;;;;;;5031130;28;20037;-79
2023/05/24 07:57:17;;;;;;;16.75;3.13;;;12.70;99.90;;;;;;5013242;28;20148;-79
2023/05/24 07:59:43;;;;;;;12.88;3.60;;;12.70;99.90;;;;;;5013589;28;20087;-78
2023/05/24 08:02:10;;;;;;;11.88;3.35;;;12.80;99.90;;;;;;5013680;28;20037;-79
2023/05/24 08:04:36;;;;;;;13.75;2.92;;;12.80;99.90;;;;;;5013326;28;20045;-79
2023/05/24 08:07:02;;;;;;;9.75;2.63;;;12.90;99.90;;;;;;4997477;28;20048;-79
2023/05/24 08:09:28;;;;;;;16.83;3.35;;;12.90;99.90;;;;;;5012993;28;20048;-78
2023/05/24 08:11:55;;;;;;;15.73;3.42;;;13.00;99.90;;;;;;5005645;28;20053;-78
2023/05/24 08:14:22;;;;;;;11.23;3.33;;;13.00;99.90;;;;;;5010786;28;20053;-79
2023/05/24 08:16:48;;;;;;;10.38;2.97;;;13.20;99.90;;;;;;5030700;28;20045;-79
2023/05/24 08:19:13;;;;;;;13.18;3.38;;;13.30;99.90;;;;;;5031254;28;20448;-79
2023/05/24 08:21:41;;;;;;;12.43;2.95;;;13.20;99.90;;;;;;5012712;28;20135;-79
2023/05/24 08:24:07;;;;;;;14.73;3.28;;;13.20;99.90;;;;;;4996972;28;20045;-79
2023/05/24 08:26:32;;;;;;;9.63;2.53;;;13.60;99.90;;;;;;5031417;28;20475;-79
2023/05/24 08:28:58;;;;;;;9.00;2.90;;;13.50;99.90;;;;;;4997485;28;20041;-79
2023/05/24 08:31:23;;;;;;;10.52;3.10;;;13.40;99.90;;;;;;5029618;28;20095;-79
2023/05/24 08:33:49;;;;;;;10.20;2.60;;;13.40;99.90;;;;;;5015253;28;20091;-79
2023/05/24 08:36:16;;;;;;;10.68;3.03;;;13.40;99.90;;;;;;5016909;28;20073;-79
2023/05/24 08:38:42;;;;;;;9.88;2.58;;;13.40;99.90;;;;;;4996804;28;20555;-79
2023/05/24 08:41:10;;;;;;;10.65;2.25;;;13.40;99.90;;;;;;5015645;28;20077;-78
2023/05/24 08:43:37;;;;;;;8.90;2.72;;;13.30;99.90;;;;;;5016606;28;20103;-80
2023/05/24 08:46:04;;;;;;;7.47;2.40;;;13.40;99.90;;;;;;5016433;28;20056;-79
2023/05/24 08:48:30;;;;;;;7.07;1.98;;;13.60;99.90;;;;;;5015919;28;20048;-79
2023/05/24 08:50:57;;;;;;;9.10;2.85;;;13.90;99.90;;;;;;5028463;28;20491;-79
2023/05/24 08:53:23;;;;;;;8.52;2.60;;;13.90;99.90;;;;;;5000583;28;20087;-78
2023/05/24 08:55:53;;;;;;;7.55;2.53;;;13.90;99.90;;;;;;5016774;28;20042;-79
2023/05/24 08:58:19;;;;;;;12.35;3.50;;;14.00;99.90;;;;;;5016452;28;20049;-79
2023/05/24 09:00:45;;;;;;;10.50;3.03;;;14.20;99.90;;;;;;5016732;28;20041;-78
2023/05/24 09:03:11;;;;;;;11.00;2.97;;;14.20;99.90;;;;;;5016995;28;20053;-79
2023/05/24 09:05:39;;;;;;;9.50;2.85;;;14.20;99.90;;;;;;5016390;28;20080;-80
2023/05/24 09:08:05;;;;;;;8.30;2.78;;;14.20;99.90;;;;;;5013790;28;20054;-80
2023/05/24 09:10:32;;;;;;;14.05;2.83;;;14.20;99.90;;;;;;5014030;28;20045;-79
2023/05/24 09:13:01;;;;;;;11.05;2.55;;;14.20;99.90;;;;;;5015935;28;20445;-79
2023/05/24 09:15:28;;;;;;;10.25;2.88;;;14.40;99.90;;;;;;5014691;28;20045;-79
2023/05/24 09:17:53;;;;;;;8.23;2.30;;;14.60;99.90;;;;;;5017318;28;20049;-79
2023/05/24 09:20:20;;;;;;;9.82;2.83;;;14.50;99.90;;;;;;5016956;28;20037;-80
2023/05/24 09:22:49;;;;;;;8.50;2.72;;;14.50;99.90;;;;;;4999942;28;20043;-79
2023/05/24 09:25:16;;;;;;;12.35;2.53;;;14.50;99.90;;;;;;5013243;28;20045;-79
2023/05/24 09:27:49;;;;;;;12.15;3.20;;;14.40;99.90;;;;;;5000724;28;20043;-79
2023/05/24 09:30:15;;;;;;;9.82;2.50;;;14.40;99.90;;;;;;5016823;28;20098;-79
2023/05/24 09:32:56;;;;;;;10.32;2.97;;;14.50;99.90;;;;;;5015493;28;20049;-79
2023/05/24 09:35:22;;;;;;;9.73;3.00;;;14.50;99.90;;;;;;5034104;28;20401;-81
2023/05/24 09:37:48;;;;;;;10.93;2.80;;;14.70;99.90;;;;;;4997933;28;20055;-78
2023/05/24 09:40:18;;;;;;;11.40;2.78;;;14.50;99.90;;;;;;5017377;28;20155;-82
2023/05/24 09:42:44;;;;;;;12.65;3.55;;;14.30;99.90;;;;;;5016695;28;20080;-79
2023/05/24 09:45:10;;;;;;;8.80;3.10;;;14.20;99.90;;;;;;5013719;28;20081;-79
2023/05/24 09:47:41;;;;;;;7.05;2.28;;;14.40;99.90;;;;;;5016658;28;20033;-81
2023/05/24 09:50:12;;;;;;;8.32;2.60;;;14.60;99.90;;;;;;5015910;28;20084;-79
2023/05/24 09:52:39;;;;;;;5.97;2.50;;;14.30;99.90;;;;;;5015196;28;20539;-79
2023/05/24 09:55:12;;;;;;;4.55;2.10;;;14.50;99.90;;;;;;5032235;28;20504;-79
2023/05/24 09:57:37;;;;;;;7.18;2.45;;;14.70;99.90;;;;;;5014045;28;20551;-79
2023/05/24 10:00:14;;;;;;;5.95;2.25;;;15.00;99.90;;;;;;5018023;28;20045;-80
2023/05/24 10:02:41;;;;;;;7.63;2.58;;;15.20;99.90;;;;;;4987206;28;20113;-80
2023/05/24 10:05:10;;;;;;;9.18;2.65;;;15.10;99.90;;;;;;4998029;28;20048;-79
2023/05/24 10:07:36;;;;;;;8.50;3.00;;;15.00;99.90;;;;;;5032226;28;20046;-79
2023/05/24 10:10:04;;;;;;;11.02;2.70;;;15.30;99.90;;;;;;5010165;28;20121;-78
2023/05/24 10:12:30;;;;;;;7.32;2.60;;;15.20;99.90;;;;;;5013141;28;20069;-80
2023/05/24 10:14:56;;;;;;;6.10;2.60;;;15.10;99.90;;;;;;4993545;28;20085;-80
2023/05/24 10:17:23;;;;;;;7.38;2.90;;;15.10;99.90;;;;;;5012664;28;20037;-79
2023/05/24 10:19:51;;;;;;;6.22;2.83;;;15.00;99.90;;;;;;5012263;28;20033;-78
2023/05/24 10:22:17;;;;;;;6.78;2.50;;;15.10;99.90;;;;;;5030850;28;20067;-80
2023/05/24 10:24:48;;;;;;;9.60;2.60;;;15.10;99.90;;;;;;5014964;28;20051;-80
2023/05/24 10:27:20;;;;;;;9.05;2.38;;;14.90;99.90;;;;;;5033562;28;20073;-79
2023/05/24 10:29:50;;;;;;;9.07;2.78;;;15.00;99.90;;;;;;5008457;28;20045;-79
2023/05/24 10:32:17;;;;;;;9.63;2.63;;;14.90;99.90;;;;;;5015134;28;20045;-79
2023/05/24 10:34:45;;;;;;;10.93;3.00;;;14.90;99.90;;;;;;5014365;28;20564;-79
2023/05/24 10:37:10;;;;;;;7.28;2.40;;;14.70;99.90;;;;;;5027075;28;20680;-79
2023/05/24 10:39:36;;;;;;;8.07;2.60;;;14.70;99.90;;;;;;5027993;28;20052;-81
2023/05/24 10:42:04;;;;;;;11.45;3.53;;;14.70;99.90;;;;;;5030719;28;20049;-79
2023/05/24 10:44:30;;;;;;;11.63;2.97;;;14.70;99.90;;;;;;5031198;28;20196;-80
2023/05/24 10:47:12;;;;;;;9.13;2.90;;;14.70;99.90;;;;;;5014269;28;20061;-79
2023/05/24 10:49:50;;;;;;;14.30;4.25;;;14.50;99.90;;;;;;5011777;28;20041;-80
2023/05/24 10:52:16;;;;;;;8.85;2.67;;;14.40;99.90;;;;;;5012520;28;20121;-79
2023/05/24 10:55:04;;;;;;;14.18;3.63;;;14.40;99.90;;;;;;5031211;28;20175;-79
2023/05/24 10:57:33;;;;;;;11.30;3.38;;;14.50;99.90;;;;;;5027925;28;20449;-78
2023/05/24 11:00:26;;;;;;;9.15;2.88;;;14.50;99.90;;;;;;5014040;28;20045;-79
2023/05/24 11:03:07;;;;;;;8.38;2.88;;;14.80;99.90;;;;;;5009140;28;20060;-80
2023/05/24 11:05:45;;;;;;;8.00;2.90;;;15.00;99.90;;;;;;5012902;28;20497;-80
2023/05/24 11:08:10;;;;;;;7.70;2.85;;;14.70;99.90;;;;;;5030099;28;20042;-79
2023/05/24 11:10:36;;;;;;;11.30;3.05;;;14.80;99.90;;;;;;5012374;28;20041;-80
2023/05/24 11:13:02;;;;;;;7.78;2.65;;;14.90;99.90;;;;;;5014167;28;20079;-80
2023/05/24 11:15:29;;;;;;;13.25;3.05;;;15.10;99.90;;;;;;5012525;28;20079;-80
2023/05/24 11:18:07;;;;;;;11.25;3.20;;;15.30;99.90;;;;;;5011720;28;20493;-79
2023/05/24 11:20:34;;;;;;;9.73;3.13;;;15.50;99.90;;;;;;5011345;28;20042;-79
2023/05/24 11:23:02;;;;;;;14.30;2.97;;;15.70;99.90;;;;;;4993240;28;20033;-80
2023/05/24 11:25:28;;;;;;;10.20;3.25;;;15.50;99.90;;;;;;5029748;28;20045;-79
2023/05/24 11:27:57;;;;;;;11.00;3.03;;;15.40;99.90;;;;;;5028705;28;20048;-83
2023/05/24 11:30:23;;;;;;;9.82;2.92;;;15.00;99.90;;;;;;5008116;28;20509;-79
2023/05/24 11:32:49;;;;;;;8.23;2.72;;;14.90;99.90;;;;;;5013568;28;20094;-81
2023/05/24 11:35:17;;;;;;;7.72;2.60;;;14.70;99.90;;;;;;5015064;28;20552;-80
2023/05/24 11:37:44;;;;;;;8.05;2.30;;;15.00;99.90;;;;;;5023363;28;20040;-80
2023/05/24 11:40:10;;;;;;;9.63;2.67;;;15.10;99.90;;;;;;5011031;28;20049;-79
2023/05/24 11:42:37;;;;;;;6.05;2.20;;;15.30;99.90;;;;;;5029965;28;20088;-82
2023/05/24 11:45:05;;;;;;;12.93;2.78;;;15.50;99.90;;;;;;5029542;28;20041;-80
2023/05/24 11:47:35;;;;;;;11.43;2.90;;;15.40;99.90;;;;;;5013557;28;20099;-78
2023/05/24 11:50:01;;;;;;;11.55;3.03;;;15.40;99.90;;;;;;5008215;28;20045;-80
2023/05/24 11:52:26;;;;;;;9.32;2.50;;;15.40;99.90;;;;;;5015195;28;20493;-79
2023/05/24 11:54:53;;;;;;;10.45;2.72;;;15.30;99.90;;;;;;5032879;28;20488;-81
2023/05/24 11:57:28;;;;;;;10.52;2.60;;;15.00;99.90;;;;;;5014154;28;20077;-81
2023/05/24 11:59:54;;;;;;;6.47;2.70;;;15.10;99.90;;;;;;5014166;28;20179;-80
2023/05/24 12:02:19;;;;;;;7.07;2.35;;;15.20;99.90;;;;;;5014574;28;20060;-80
2023/05/24 12:04:46;;;;;;;10.80;2.78;;;15.00;99.90;;;;;;5032436;28;20037;-81
2023/05/24 12:07:11;;;;;;;9.93;3.17;;;14.90;99.90;;;;;;5014004;28;20050;-78
2023/05/24 12:09:37;;;;;;;7.43;2.38;;;15.00;99.90;;;;;;5013561;28;20049;-79
2023/05/24 12:12:03;;;;;;;9.35;2.40;;;14.90;99.90;;;;;;5010714;28;20041;-77
2023/05/24 12:14:30;;;;;;;14.35;2.70;;;14.90;99.90;;;;;;5009047;28;20112;-78
2023/05/24 12:16:56;;;;;;;10.45;2.90;;;14.90;99.90;;;;;;5009298;28;20550;-78
2023/05/24 12:19:28;;;;;;;9.25;2.67;;;15.00;99.90;;;;;;5008731;28;20033;-78
2023/05/24 12:21:57;;;;;;;7.75;2.58;;;14.90;99.90;;;;;;5009238;28;20063;-78
2023/05/24 12:24:24;;;;;;;14.48;3.28;;;14.90;99.90;;;;;;5008884;28;20489;-78
2023/05/24 12:26:50;;;;;;;10.65;3.13;;;14.80;99.90;;;;;;4994302;28;20041;-77
2023/05/24 12:29:16;;;;;;;9.65;2.67;;;14.70;99.90;;;;;;5012974;28;20469;-77
2023/05/24 12:31:43;;;;;;;10.18;2.72;;;14.70;99.90;;;;;;5012766;28;20049;-77
2023/05/24 12:34:19;;;;;;;9.27;3.45;;;14.90;99.90;;;;;;5031284;28;20497;-77
2023/05/24 12:36:48;;;;;;;8.93;2.80;;;14.90;99.90;;;;;;5030662;28;20045;-77
2023/05/24 12:39:22;;;;;;;7.63;2.28;;;15.00;99.90;;;;;;5030316;28;20509;-77
2023/05/24 12:41:54;;;;;;;8.95;2.72;;;15.20;99.90;;;;;;5012994;28;20091;-77
2023/05/24 12:44:24;;;;;;;8.85;2.33;;;15.30;99.90;;;;;;5030630;28;20124;-77